FPST

Details ICAO FPST (TMS)
Name Sao Tome International Airport
Region São Tomé and Príncipe
Timezone Africa/Sao_Tome (UTC+1.0)
Plans Departing 165
Arriving 217
Stats Elevation 33 ft / 10 m (AMSL)
Location 0.378208° 6.712050°
Runways 1
Magnetic Variation 2.408° W
Sunrise 2020-09-30 05:21:01 UTC / 2020-09-30 06:21:01 Local
Sunset 2020-09-30 17:27:32 UTC / 2020-09-30 18:27:32 Local
Advertisement - Login to hide

Runways

ID Width Length Bearing (true/mag) Surface Threshold Overrun Markings Lighting
11 148 ft / 45 m 7,283 ft / 2,220 m 103.52° / 105.93° ASPHALT 200 ft / 61 m 0 ft / 0 m PREC-APP EDGE THRESHOLD SSALF
29 148 ft / 45 m 7,283 ft / 2,220 m 283.52° / 285.93° ASPHALT 200 ft / 61 m 0 ft / 0 m PREC-APP EDGE THRESHOLD

Map

Weather


0- 5 10 15 20 25 30 35+ Temperature / °C

Clouds and Precipitation
Forecast for 2020-09-30 18:00 UTC. Updated 4 hours ago

Ground ~20,000 ft ~40,000 ft Winds

METAR

FPST 301900Z 19006KT 9999 FEW020 BKN040 26/22 Q1011 NOSIG

TAF

Not found

Frequencies

Approach 127.10 MHz Sao Tome Approach
Tower 118.90 MHz Sao Tome Tower
Warning: Do not use this data for real-world aviation or navigation. No guarantee of current accuracy is given.